ADDS METAR Data INFO
IDs: Format: Raw Decoded Include TAF

Data at: 0353 UTC 20 Feb 2018

KBIE 200335Z AUTO 01008KT 10SM OVC008 M05/M07 A2985 RMK AO2 T10551068
KBIE 200315Z AUTO 36009KT 10SM OVC008 M05/M06 A2985 RMK AO2 T10551065
KBIE 200255Z AUTO 36011KT 10SM OVC006 M05/M06 A2984 RMK AO2 T10551065
KBIE 200235Z AUTO 36009KT 10SM OVC006 M05/M06 A2985 RMK AO2 T10531062
KBIE 200215Z AUTO 02009KT 10SM OVC008 M05/M06 A2985 RMK AO2 T10521062
KBIE 200155Z AUTO 36009KT 10SM OVC008 M05/M06 A2985 RMK AO2 T10501060
KBIE 200135Z AUTO 35011KT 7SM OVC008 M05/M06 A2985 RMK AO2 T10501060
KBIE 200115Z AUTO 36011KT 7SM OVC008 M05/M06 A2987 RMK AO2 T10471056
KBIE 200055Z AUTO 36007KT 7SM OVC008 M04/M05 A2987 RMK AO2 T10451055
KBIE 200035Z AUTO 36007KT 10SM OVC008 M04/M06 A2987 RMK AO2 T10451056
KBIE 200015Z AUTO 01009KT 7SM OVC008 M04/M06 A2985 RMK AO2 T10451057
KBIE 192355Z AUTO 35009KT 10SM OVC008 M04/M06 A2986 RMK AO2 T10431056 11038 21044
KBIE 192335Z AUTO 36007KT 10SM OVC008 M04/M05 A2985 RMK AO2 T10431055
KBIE 192315Z AUTO 36010KT 10SM OVC008 M04/M05 A2984 RMK AO2 LTG DSNT E T10421055
KBIE 192255Z AUTO 35008KT 10SM OVC008 M04/M05 A2986 RMK AO2 T10411054
KBIE 192235Z AUTO 36009KT 10SM OVC008 M04/M05 A2985 RMK AO2 T10401055
KBIE 192215Z AUTO 34011KT 10SM OVC008 M04/M05 A2983 RMK AO2 T10401055
KBIE 192155Z AUTO 34011KT 10SM OVC008 M04/M05 A2983 RMK AO2 T10401055
KBIE 192135Z AUTO 35011KT 10SM OVC008 M04/M05 A2982 RMK AO2 T10401053
KBIE 192115Z AUTO 34011KT 10SM OVC008 M04/M05 A2982 RMK AO2 T10411054
KBIE 192055Z AUTO 33012KT 10SM OVC008 M04/M05 A2982 RMK AO2 T10401052
KBIE 192035Z AUTO 34009KT 10SM OVC008 M04/M05 A2982 RMK AO2 T10411052
KBIE 192015Z AUTO 34011KT 10SM OVC008 M04/M05 A2981 RMK AO2 T10401051
KBIE 191955Z AUTO 35011KT 10SM OVC008 M04/M05 A2982 RMK AO2 T10391052
KBIE 191935Z AUTO 34011KT 10SM OVC008 M04/M05 A2982 RMK AO2 T10401051
KBIE 191915Z AUTO 34011KT 10SM OVC006 M04/M05 A2982 RMK AO2 T10411053
KBIE 191855Z AUTO 34011G16KT 10SM OVC006 M04/M05 A2983 RMK AO2 T10401051
KBIE 191835Z AUTO 35012KT 10SM OVC006 M04/M05 A2983 RMK AO2 T10401050
KBIE 191815Z AUTO 34010KT 10SM OVC006 M04/M05 A2984 RMK AO2 T10401050
KBIE 191755Z AUTO 35013KT 10SM OVC006 M04/M05 A2984 RMK AO2 T10401050 11019 21040
KBIE 191735Z AUTO 34012KT 10SM OVC006 M04/M05 A2984 RMK AO2 T10401050
KBIE 191715Z AUTO 34013KT 10SM OVC006 M04/M05 A2983 RMK AO2 T10371047
KBIE 191655Z AUTO 36012KT 7SM OVC006 M04/M05 A2984 RMK AO2 T10401050
KBIE 191635Z AUTO 35012G15KT 10SM OVC006 M04/M05 A2982 RMK AO2 T10381047
KBIE 191615Z AUTO 35015KT 7SM OVC006 M04/M05 A2981 RMK AO2 T10391047
KBIE 191555Z AUTO 34013KT 10SM OVC006 M04/M05 A2981 RMK AO2 T10381046
KBIE 191535Z AUTO 34011KT 7SM OVC006 M04/M04 A2980 RMK AO2 T10371045
KBIE 191515Z AUTO 35015G20KT 7SM OVC006 M04/M05 A2980 RMK AO2 T10381047
KBIE 191455Z AUTO 35016KT 2SM BR OVC006 M04/M04 A2979 RMK AO2 T10381045
KBIE 191435Z AUTO 35016G21KT 2 1/2SM BR OVC006 M04/M04 A2979 RMK AO2 T10371044
KBIE 191415Z AUTO 35017KT 2SM BR OVC006 M04/M04 A2978 RMK AO2 T10361044
KBIE 191355Z AUTO 34017KT 3SM BR OVC006 M04/M04 A2976 RMK AO2 T10361043
KBIE 191335Z AUTO 34016KT 3SM BR OVC006 M03/M04 A2975 RMK AO2 T10351041
KBIE 191315Z AUTO 35019G25KT 3SM BR OVC006 M03/M04 A2974 RMK AO2 T10321040
KBIE 191255Z AUTO 36018G24KT 2 1/2SM BR OVC006 M03/M03 A2973 RMK AO2 T10291035
KBIE 191235Z AUTO 34021KT 2 1/2SM BR OVC006 M02/M03 A2973 RMK AO2 T10231030
KBIE 191215Z AUTO 35021G27KT 4SM BR OVC006 M02/M03 A2972 RMK AO2 T10201029
KBIE 191155Z AUTO 35023G26KT 5SM BR OVC006 M02/M03 A2971 RMK AO2 T10171026 10086 21017 401481017
KBIE 191135Z AUTO 35020G23KT 5SM BR OVC006 M01/M01 A2968 RMK AO2 T10081014
KBIE 191115Z AUTO 35020G24KT 4SM BR OVC006 00/M01 A2967 RMK AO2 T10041010
KBIE 191055Z AUTO 35017G23KT 4SM BR OVC004 00/00 A2966 RMK AO2 T00001003
KBIE 191035Z AUTO 35021G24KT 5SM BR OVC004 00/00 A2964 RMK AO2 T00020000
KBIE 191015Z AUTO 34016KT 5SM BR OVC004 00/00 A2964 RMK AO2 T00020000
KBIE 190955Z AUTO 34013KT 4SM BR OVC004 00/00 A2964 RMK AO2 T00020000
KBIE 190935Z AUTO 35014KT 4SM BR OVC004 00/00 A2962 RMK AO2 T00030000
KBIE 190915Z AUTO 35013G16KT 7SM OVC006 01/00 A2962 RMK AO2 T00060001
KBIE 190855Z AUTO 36012KT 7SM OVC006 01/00 A2960 RMK AO2 T00070001
KBIE 190835Z AUTO 36011KT 7SM OVC006 01/01 A2960 RMK AO2 T00130005
KBIE 190815Z AUTO 01010G14KT 10SM BKN008 OVC013 02/01 A2960 RMK AO2 T00200009
KBIE 190755Z AUTO 02008KT 10SM OVC013 03/02 A2959 RMK AO2 T00300017
KBIE 190735Z AUTO 01010KT 10SM OVC013 04/02 A2958 RMK AO2 T00380020
KBIE 190715Z AUTO 07007KT 10SM OVC013 08/06 A2958 RMK AO2 T00820062
KBIE 190655Z AUTO 06007KT 10SM OVC015 08/06 A2958 RMK AO2 T00830062
KBIE 190635Z AUTO 07006KT 10SM OVC015 08/06 A2958 RMK AO2 T00820061
KBIE 190615Z AUTO 06007KT 10SM OVC015 08/06 A2959 RMK AO2 T00830061
KBIE 190555Z AUTO 06006KT 10SM OVC015 08/06 A2959 RMK AO2 T00800060 10130 20070
KBIE 190535Z AUTO 05006KT 10SM OVC017 08/06 A2960 RMK AO2 T00800058
KBIE 190515Z AUTO 04006KT 10SM OVC017 07/06 A2960 RMK AO2 T00730055
KBIE 190455Z AUTO 04006KT 10SM OVC017 07/05 A2960 RMK AO2 T00700053
KBIE 190435Z AUTO 03009KT 10SM OVC019 07/06 A2961 RMK AO2 T00720055
KBIE 190415Z AUTO 02007KT 10SM BKN021 07/06 A2960 RMK AO2 T00720056
KBIE 190355Z AUTO 06004KT 10SM SCT021 08/06 A2958 RMK AO2 T00820060
KBIE 190335Z AUTO 11005KT 10SM BKN021 09/06 A2958 RMK AO2 T00850059
KBIE 190315Z AUTO 14006KT 10SM SCT021 09/06 A2958 RMK AO2 T00850060
KBIE 190255Z AUTO 17008KT 10SM CLR 09/06 A2958 RMK AO2 T00880060
KBIE 190235Z AUTO 16007KT 10SM SCT023 09/06 A2958 RMK AO2 T00940059
KBIE 190215Z AUTO 17013G19KT 10SM CLR 10/06 A2958 RMK AO2 T01010060
KBIE 190155Z AUTO 18014G19KT 10SM CLR 11/06 A2959 RMK AO2 T01060062
KBIE 190135Z AUTO 17010G14KT 10SM CLR 11/06 A2959 RMK AO2 T01100061
KBIE 190115Z AUTO 16009KT 10SM CLR 12/06 A2958 RMK AO2 T01150060
KBIE 190055Z AUTO 17011G18KT 10SM CLR 11/06 A2957 RMK AO2 T01140060
KBIE 190035Z AUTO 17010G15KT 10SM CLR 12/06 A2956 RMK AO2 T01180060
KBIE 190015Z AUTO 17010KT 10SM CLR 13/06 A2956 RMK AO2 T01250061
KBIE 182355Z AUTO 17014G20KT 10SM CLR 13/06 A2956 RMK AO2 T01300060 10148 20126
KBIE 182335Z AUTO 18013G24KT 10SM CLR 13/06 A2956 RMK AO2 T01340060
KBIE 182315Z AUTO 19017G22KT 10SM CLR 13/06 A2956 RMK AO2 T01340058
KBIE 182255Z AUTO 19017G28KT 10SM CLR 13/06 A2956 RMK AO2 T01320055
KBIE 182235Z AUTO 19023G30KT 10SM CLR 14/05 A2955 RMK AO2 T01350052
KBIE 182215Z AUTO 19026G31KT 10SM CLR 14/05 A2956 RMK AO2 T01350050
KBIE 182155Z AUTO 19021G31KT 10SM CLR 14/05 A2957 RMK AO2 T01390045
KBIE 182135Z AUTO 18019G31KT 10SM CLR 14/04 A2958 RMK AO2 T01430041
KBIE 182115Z AUTO 18021G29KT 10SM CLR 15/04 A2957 RMK AO2 T01480044
KBIE 182055Z AUTO 19022G31KT 10SM CLR 15/03 A2958 RMK AO2 T01470032
KBIE 182035Z AUTO 20028G34KT 10SM CLR 14/02 A2959 RMK AO2 T01430024
KBIE 182015Z AUTO 19026G34KT 10SM CLR 14/02 A2961 RMK AO2 T01380016
KBIE 181955Z AUTO 20023G35KT 10SM CLR 14/01 A2961 RMK AO2 T01400010
KBIE 181935Z AUTO 18025G34KT 10SM CLR 14/00 A2963 RMK AO2 T01440002
KBIE 181915Z AUTO 19021G31KT 10SM CLR 14/M01 A2965 RMK AO2 T01401006
KBIE 181855Z AUTO 18025G33KT 10SM CLR 14/M02 A2966 RMK AO2 T01351016
KBIE 181835Z AUTO 19029G40KT 10SM CLR 13/M02 A2967 RMK AO2 T01301023
KBIE 181815Z AUTO 19024G38KT 10SM CLR 13/M03 A2969 RMK AO2 T01281026
KBIE 181755Z AUTO 19028G38KT 10SM CLR 13/M03 A2971 RMK AO2 T01251031 10125 20038
KBIE 181735Z AUTO 18026G37KT 10SM CLR 12/M03 A2972 RMK AO2 T01191031
KBIE 181715Z AUTO 18025G39KT 10SM CLR 11/M03 A2973 RMK AO2 T01101032
KBIE 181655Z AUTO 18025G36KT 10SM CLR 11/M03 A2974 RMK AO2 T01061032
KBIE 181635Z AUTO 18022G31KT 10SM CLR 10/M03 A2977 RMK AO2 T01021030
KBIE 181615Z AUTO 18022G28KT 10SM CLR 09/M02 A2978 RMK AO2 T00921018
KBIE 181555Z AUTO 18022G29KT 10SM CLR 09/M01 A2980 RMK AO2 T00851007